sensor_id;sensor_type;location;lat;lon;timestamp;temperature;humidity
25963;DHT22;13760;52.588;13.406;2023-03-14T00:01:56;12.00;99.90
25963;DHT22;13760;52.588;13.406;2023-03-14T00:04:22;12.00;99.90
25963;DHT22;13760;52.588;13.406;2023-03-14T00:06:47;12.00;99.90
25963;DHT22;13760;52.588;13.406;2023-03-14T00:09:15;11.90;99.90
25963;DHT22;13760;52.588;13.406;2023-03-14T00:11:41;11.90;99.90
25963;DHT22;13760;52.588;13.406;2023-03-14T00:14:06;11.90;99.90
25963;DHT22;13760;52.588;13.406;2023-03-14T00:16:32;11.80;99.90
25963;DHT22;13760;52.588;13.406;2023-03-14T00:19:01;11.80;99.90
25963;DHT22;13760;52.588;13.406;2023-03-14T00:21:26;11.80;99.90
25963;DHT22;13760;52.588;13.406;2023-03-14T00:23:52;11.90;99.90
25963;DHT22;13760;52.588;13.406;2023-03-14T00:26:20;11.90;99.90
25963;DHT22;13760;52.588;13.406;2023-03-14T00:28:46;11.80;99.90
25963;DHT22;13760;52.588;13.406;2023-03-14T00:31:15;11.70;99.90
25963;DHT22;13760;52.588;13.406;2023-03-14T00:33:41;11.70;99.90
25963;DHT22;13760;52.588;13.406;2023-03-14T00:36:12;11.70;99.90
25963;DHT22;13760;52.588;13.406;2023-03-14T00:38:38;11.60;99.90
25963;DHT22;13760;52.588;13.406;2023-03-14T00:41:10;11.60;99.90
25963;DHT22;13760;52.588;13.406;2023-03-14T00:43:36;11.60;99.90
25963;DHT22;13760;52.588;13.406;2023-03-14T00:46:02;11.60;99.90
25963;DHT22;13760;52.588;13.406;2023-03-14T00:48:28;11.60;99.90
25963;DHT22;13760;52.588;13.406;2023-03-14T00:50:53;11.50;99.90
25963;DHT22;13760;52.588;13.406;2023-03-14T00:53:19;11.50;99.90
25963;DHT22;13760;52.588;13.406;2023-03-14T00:55:45;11.50;99.90
25963;DHT22;13760;52.588;13.406;2023-03-14T00:58:12;11.40;99.90
25963;DHT22;13760;52.588;13.406;2023-03-14T01:00:38;11.40;99.90
25963;DHT22;13760;52.588;13.406;2023-03-14T01:03:05;11.40;99.90
25963;DHT22;13760;52.588;13.406;2023-03-14T01:05:31;11.40;99.90
25963;DHT22;13760;52.588;13.406;2023-03-14T01:07:56;11.40;99.90
25963;DHT22;13760;52.588;13.406;2023-03-14T01:10:22;11.40;99.90
25963;DHT22;13760;52.588;13.406;2023-03-14T01:12:48;11.40;99.90
25963;DHT22;13760;52.588;13.406;2023-03-14T01:15:14;11.40;99.90
25963;DHT22;13760;52.588;13.406;2023-03-14T01:17:40;11.30;99.90
25963;DHT22;13760;52.588;13.406;2023-03-14T01:20:07;11.30;99.90
25963;DHT22;13760;52.588;13.406;2023-03-14T01:22:35;11.30;99.90
25963;DHT22;13760;52.588;13.406;2023-03-14T01:25:01;11.30;99.90
25963;DHT22;13760;52.588;13.406;2023-03-14T01:27:26;11.30;99.90
25963;DHT22;13760;52.588;13.406;2023-03-14T01:29:52;11.30;99.90
25963;DHT22;13760;52.588;13.406;2023-03-14T01:32:17;11.30;99.90
25963;DHT22;13760;52.588;13.406;2023-03-14T01:34:57;11.30;99.90
25963;DHT22;13760;52.588;13.406;2023-03-14T01:37:31;11.30;99.90
25963;DHT22;13760;52.588;13.406;2023-03-14T01:39:57;11.30;99.90
25963;DHT22;13760;52.588;13.406;2023-03-14T01:42:22;11.30;99.90
25963;DHT22;13760;52.588;13.406;2023-03-14T01:44:52;11.30;99.90
25963;DHT22;13760;52.588;13.406;2023-03-14T01:47:18;11.30;99.90
25963;DHT22;13760;52.588;13.406;2023-03-14T01:49:47;11.30;99.90
25963;DHT22;13760;52.588;13.406;2023-03-14T01:52:22;11.30;99.90
25963;DHT22;13760;52.588;13.406;2023-03-14T01:54:51;11.30;99.90
25963;DHT22;13760;52.588;13.406;2023-03-14T01:57:40;11.30;99.90
25963;DHT22;13760;52.588;13.406;2023-03-14T02:00:12;11.30;99.90
25963;DHT22;13760;52.588;13.406;2023-03-14T02:02:41;11.30;99.90
25963;DHT22;13760;52.588;13.406;2023-03-14T02:05:09;11.30;99.90
25963;DHT22;13760;52.588;13.406;2023-03-14T02:10:04;11.30;99.90
25963;DHT22;13760;52.588;13.406;2023-03-14T02:12:31;11.20;99.90
25963;DHT22;13760;52.588;13.406;2023-03-14T02:14:57;11.20;99.90
25963;DHT22;13760;52.588;13.406;2023-03-14T02:17:24;11.20;99.90
25963;DHT22;13760;52.588;13.406;2023-03-14T02:20:18;11.20;99.90
25963;DHT22;13760;52.588;13.406;2023-03-14T02:22:45;11.20;99.90
25963;DHT22;13760;52.588;13.406;2023-03-14T02:27:49;11.20;99.90
25963;DHT22;13760;52.588;13.406;2023-03-14T02:30:21;11.10;99.90
25963;DHT22;13760;52.588;13.406;2023-03-14T02:32:50;11.10;99.90
25963;DHT22;13760;52.588;13.406;2023-03-14T02:35:21;11.10;99.90
25963;DHT22;13760;52.588;13.406;2023-03-14T02:37:52;11.10;99.90
25963;DHT22;13760;52.588;13.406;2023-03-14T02:40:20;11.10;99.90
25963;DHT22;13760;52.588;13.406;2023-03-14T02:46:11;11.20;99.90
25963;DHT22;13760;52.588;13.406;2023-03-14T02:49:05;11.20;99.90
25963;DHT22;13760;52.588;13.406;2023-03-14T02:51:33;11.20;99.90
25963;DHT22;13760;52.588;13.406;2023-03-14T02:53:58;11.30;99.90
25963;DHT22;13760;52.588;13.406;2023-03-14T02:56:24;11.30;99.90
25963;DHT22;13760;52.588;13.406;2023-03-14T02:58:50;11.30;99.90
25963;DHT22;13760;52.588;13.406;2023-03-14T03:01:15;11.20;99.90
25963;DHT22;13760;52.588;13.406;2023-03-14T03:03:41;11.30;99.90
25963;DHT22;13760;52.588;13.406;2023-03-14T03:06:07;11.20;99.90
25963;DHT22;13760;52.588;13.406;2023-03-14T03:08:33;11.20;99.90
25963;DHT22;13760;52.588;13.406;2023-03-14T03:10:58;11.10;99.90
25963;DHT22;13760;52.588;13.406;2023-03-14T03:13:24;11.10;99.90
25963;DHT22;13760;52.588;13.406;2023-03-14T03:19:12;11.00;99.90
25963;DHT22;13760;52.588;13.406;2023-03-14T03:21:39;11.00;99.90
25963;DHT22;13760;52.588;13.406;2023-03-14T03:24:05;11.00;99.90
25963;DHT22;13760;52.588;13.406;2023-03-14T03:26:30;11.00;99.90
25963;DHT22;13760;52.588;13.406;2023-03-14T03:28:56;10.90;99.90
25963;DHT22;13760;52.588;13.406;2023-03-14T03:31:21;10.90;99.90
25963;DHT22;13760;52.588;13.406;2023-03-14T03:33:47;10.90;99.90
25963;DHT22;13760;52.588;13.406;2023-03-14T03:36:12;10.90;99.90
25963;DHT22;13760;52.588;13.406;2023-03-14T03:38:38;10.90;99.90
25963;DHT22;13760;52.588;13.406;2023-03-14T03:41:07;10.90;99.90
25963;DHT22;13760;52.588;13.406;2023-03-14T03:43:33;10.90;99.90
25963;DHT22;13760;52.588;13.406;2023-03-14T03:46:02;10.90;99.90
25963;DHT22;13760;52.588;13.406;2023-03-14T03:48:27;10.90;99.90
25963;DHT22;13760;52.588;13.406;2023-03-14T03:50:53;10.90;99.90
25963;DHT22;13760;52.588;13.406;2023-03-14T03:53:18;10.90;99.90
25963;DHT22;13760;52.588;13.406;2023-03-14T03:55:44;10.90;99.90
25963;DHT22;13760;52.588;13.406;2023-03-14T03:58:10;10.80;99.90
25963;DHT22;13760;52.588;13.406;2023-03-14T04:00:35;10.80;99.90
25963;DHT22;13760;52.588;13.406;2023-03-14T04:03:01;10.80;99.90
25963;DHT22;13760;52.588;13.406;2023-03-14T04:05:26;10.80;99.90
25963;DHT22;13760;52.588;13.406;2023-03-14T04:07:52;10.80;99.90
25963;DHT22;13760;52.588;13.406;2023-03-14T04:10:17;10.80;99.90
25963;DHT22;13760;52.588;13.406;2023-03-14T04:12:43;10.80;99.90
25963;DHT22;13760;52.588;13.406;2023-03-14T04:15:10;10.80;99.90
25963;DHT22;13760;52.588;13.406;2023-03-14T04:17:35;10.80;99.90
25963;DHT22;13760;52.588;13.406;2023-03-14T04:20:01;10.70;99.90
25963;DHT22;13760;52.588;13.406;2023-03-14T04:22:26;10.70;99.90
25963;DHT22;13760;52.588;13.406;2023-03-14T04:24:52;10.70;99.90
25963;DHT22;13760;52.588;13.406;2023-03-14T04:27:17;10.70;99.90
25963;DHT22;13760;52.588;13.406;2023-03-14T04:29:43;10.60;99.90
25963;DHT22;13760;52.588;13.406;2023-03-14T04:32:08;10.70;99.90
25963;DHT22;13760;52.588;13.406;2023-03-14T04:34:34;10.70;99.90
25963;DHT22;13760;52.588;13.406;2023-03-14T04:37:00;10.70;99.90
25963;DHT22;13760;52.588;13.406;2023-03-14T04:39:25;10.70;99.90
25963;DHT22;13760;52.588;13.406;2023-03-14T04:41:51;10.60;99.90
25963;DHT22;13760;52.588;13.406;2023-03-14T04:44:17;10.60;99.90
25963;DHT22;13760;52.588;13.406;2023-03-14T04:46:43;10.60;99.90
25963;DHT22;13760;52.588;13.406;2023-03-14T04:49:08;10.60;99.90
25963;DHT22;13760;52.588;13.406;2023-03-14T04:51:34;10.60;99.90
25963;DHT22;13760;52.588;13.406;2023-03-14T04:53:59;10.60;99.90
25963;DHT22;13760;52.588;13.406;2023-03-14T04:56:25;10.60;99.90
25963;DHT22;13760;52.588;13.406;2023-03-14T04:58:50;10.50;99.90
25963;DHT22;13760;52.588;13.406;2023-03-14T05:01:16;10.50;99.90
25963;DHT22;13760;52.588;13.406;2023-03-14T05:03:43;10.50;99.90
25963;DHT22;13760;52.588;13.406;2023-03-14T05:06:08;10.50;99.90
25963;DHT22;13760;52.588;13.406;2023-03-14T05:08:34;10.50;99.90
25963;DHT22;13760;52.588;13.406;2023-03-14T05:10:59;10.60;99.90
25963;DHT22;13760;52.588;13.406;2023-03-14T05:13:25;10.60;99.90
25963;DHT22;13760;52.588;13.406;2023-03-14T05:15:50;10.70;99.90
25963;DHT22;13760;52.588;13.406;2023-03-14T05:18:17;10.70;99.90
25963;DHT22;13760;52.588;13.406;2023-03-14T05:20:43;10.60;99.90
25963;DHT22;13760;52.588;13.406;2023-03-14T05:23:09;10.60;99.90
25963;DHT22;13760;52.588;13.406;2023-03-14T05:25:35;10.60;99.90
25963;DHT22;13760;52.588;13.406;2023-03-14T05:28:00;10.60;99.90
25963;DHT22;13760;52.588;13.406;2023-03-14T05:30:26;10.60;99.90
25963;DHT22;13760;52.588;13.406;2023-03-14T05:32:53;10.60;99.90
25963;DHT22;13760;52.588;13.406;2023-03-14T05:35:19;10.60;99.90
25963;DHT22;13760;52.588;13.406;2023-03-14T05:37:45;10.50;99.90
25963;DHT22;13760;52.588;13.406;2023-03-14T05:40:11;10.60;99.90
25963;DHT22;13760;52.588;13.406;2023-03-14T05:42:36;10.60;99.90
25963;DHT22;13760;52.588;13.406;2023-03-14T05:45:02;10.60;99.90
25963;DHT22;13760;52.588;13.406;2023-03-14T05:47:28;10.60;99.90
25963;DHT22;13760;52.588;13.406;2023-03-14T05:49:53;10.70;99.90
25963;DHT22;13760;52.588;13.406;2023-03-14T05:52:19;10.70;99.90
25963;DHT22;13760;52.588;13.406;2023-03-14T05:54:44;10.70;99.90
25963;DHT22;13760;52.588;13.406;2023-03-14T05:57:10;10.70;99.90
25963;DHT22;13760;52.588;13.406;2023-03-14T05:59:35;10.70;99.90
25963;DHT22;13760;52.588;13.406;2023-03-14T06:02:01;10.70;99.90
25963;DHT22;13760;52.588;13.406;2023-03-14T06:04:27;10.60;99.90
25963;DHT22;13760;52.588;13.406;2023-03-14T06:06:52;10.70;99.90
25963;DHT22;13760;52.588;13.406;2023-03-14T06:09:18;10.70;99.90
25963;DHT22;13760;52.588;13.406;2023-03-14T06:11:45;10.70;99.90
25963;DHT22;13760;52.588;13.406;2023-03-14T06:14:11;10.70;99.90
25963;DHT22;13760;52.588;13.406;2023-03-14T06:16:37;10.80;99.90
25963;DHT22;13760;52.588;13.406;2023-03-14T06:19:02;10.80;99.90
25963;DHT22;13760;52.588;13.406;2023-03-14T06:21:28;10.80;99.90
25963;DHT22;13760;52.588;13.406;2023-03-14T06:23:54;10.80;99.90
25963;DHT22;13760;52.588;13.406;2023-03-14T06:26:19;10.80;99.90
25963;DHT22;13760;52.588;13.406;2023-03-14T06:28:45;10.90;99.90
25963;DHT22;13760;52.588;13.406;2023-03-14T06:31:11;10.90;99.90
25963;DHT22;13760;52.588;13.406;2023-03-14T06:33:37;11.00;99.90
25963;DHT22;13760;52.588;13.406;2023-03-14T06:36:02;10.90;99.90
25963;DHT22;13760;52.588;13.406;2023-03-14T06:38:28;11.00;99.90
25963;DHT22;13760;52.588;13.406;2023-03-14T06:40:53;10.90;99.90
25963;DHT22;13760;52.588;13.406;2023-03-14T06:43:19;10.90;99.90
25963;DHT22;13760;52.588;13.406;2023-03-14T06:45:47;10.90;99.90
25963;DHT22;13760;52.588;13.406;2023-03-14T06:48:12;11.00;99.90
25963;DHT22;13760;52.588;13.406;2023-03-14T06:50:38;11.10;99.90
25963;DHT22;13760;52.588;13.406;2023-03-14T06:53:03;11.10;99.90
25963;DHT22;13760;52.588;13.406;2023-03-14T06:55:30;11.10;99.90
25963;DHT22;13760;52.588;13.406;2023-03-14T06:57:55;11.20;99.90
25963;DHT22;13760;52.588;13.406;2023-03-14T07:00:21;11.20;99.90
25963;DHT22;13760;52.588;13.406;2023-03-14T07:02:46;11.30;99.90
25963;DHT22;13760;52.588;13.406;2023-03-14T07:05:15;11.30;99.90
25963;DHT22;13760;52.588;13.406;2023-03-14T07:07:43;11.40;99.90
25963;DHT22;13760;52.588;13.406;2023-03-14T07:10:09;11.50;99.90
25963;DHT22;13760;52.588;13.406;2023-03-14T07:12:34;11.60;99.90
25963;DHT22;13760;52.588;13.406;2023-03-14T07:15:00;11.60;99.90
25963;DHT22;13760;52.588;13.406;2023-03-14T07:17:25;11.60;99.90
25963;DHT22;13760;52.588;13.406;2023-03-14T07:19:51;11.60;99.90
25963;DHT22;13760;52.588;13.406;2023-03-14T07:22:16;11.60;99.90
25963;DHT22;13760;52.588;13.406;2023-03-14T07:24:42;11.60;99.90
25963;DHT22;13760;52.588;13.406;2023-03-14T07:27:07;11.50;99.90
25963;DHT22;13760;52.588;13.406;2023-03-14T07:29:33;11.50;99.90
25963;DHT22;13760;52.588;13.406;2023-03-14T07:31:58;11.50;99.90
25963;DHT22;13760;52.588;13.406;2023-03-14T07:34:24;11.50;99.90
25963;DHT22;13760;52.588;13.406;2023-03-14T07:36:49;11.40;99.90
25963;DHT22;13760;52.588;13.406;2023-03-14T07:39:15;11.60;99.90
25963;DHT22;13760;52.588;13.406;2023-03-14T07:41:40;11.60;99.90
25963;DHT22;13760;52.588;13.406;2023-03-14T07:44:06;11.70;99.90
25963;DHT22;13760;52.588;13.406;2023-03-14T07:46:32;11.70;99.90
25963;DHT22;13760;52.588;13.406;2023-03-14T07:49:08;11.70;99.90
25963;DHT22;13760;52.588;13.406;2023-03-14T07:51:33;11.70;99.90
25963;DHT22;13760;52.588;13.406;2023-03-14T07:53:59;11.70;99.90
25963;DHT22;13760;52.588;13.406;2023-03-14T07:56:25;11.70;99.90
25963;DHT22;13760;52.588;13.406;2023-03-14T07:58:50;11.80;99.90
25963;DHT22;13760;52.588;13.406;2023-03-14T08:01:16;11.80;99.90
25963;DHT22;13760;52.588;13.406;2023-03-14T08:03:41;12.00;99.90
25963;DHT22;13760;52.588;13.406;2023-03-14T08:06:07;12.10;99.90
25963;DHT22;13760;52.588;13.406;2023-03-14T08:08:32;12.20;99.90
25963;DHT22;13760;52.588;13.406;2023-03-14T08:11:05;12.30;99.90
25963;DHT22;13760;52.588;13.406;2023-03-14T08:13:34;12.50;99.90
25963;DHT22;13760;52.588;13.406;2023-03-14T08:15:59;12.60;99.90
25963;DHT22;13760;52.588;13.406;2023-03-14T08:18:24;12.70;99.90
25963;DHT22;13760;52.588;13.406;2023-03-14T08:20:50;12.80;99.90
25963;DHT22;13760;52.588;13.406;2023-03-14T08:23:16;12.90;99.90
25963;DHT22;13760;52.588;13.406;2023-03-14T08:25:41;12.90;99.90
25963;DHT22;13760;52.588;13.406;2023-03-14T08:28:07;12.90;99.90
25963;DHT22;13760;52.588;13.406;2023-03-14T08:30:32;12.90;99.90
25963;DHT22;13760;52.588;13.406;2023-03-14T08:32:58;12.80;99.90
25963;DHT22;13760;52.588;13.406;2023-03-14T08:35:25;12.80;99.90
25963;DHT22;13760;52.588;13.406;2023-03-14T08:37:50;12.70;99.90
25963;DHT22;13760;52.588;13.406;2023-03-14T08:40:17;12.60;99.90
25963;DHT22;13760;52.588;13.406;2023-03-14T08:42:44;12.60;99.90
25963;DHT22;13760;52.588;13.406;2023-03-14T08:45:15;12.60;99.90
25963;DHT22;13760;52.588;13.406;2023-03-14T08:47:42;12.50;99.90
25963;DHT22;13760;52.588;13.406;2023-03-14T08:50:08;12.50;99.90
25963;DHT22;13760;52.588;13.406;2023-03-14T08:52:34;12.50;99.90
25963;DHT22;13760;52.588;13.406;2023-03-14T08:55:00;12.40;99.90
25963;DHT22;13760;52.588;13.406;2023-03-14T08:57:26;12.40;99.90
25963;DHT22;13760;52.588;13.406;2023-03-14T08:59:58;12.40;99.90
25963;DHT22;13760;52.588;13.406;2023-03-14T09:02:24;12.30;99.90
25963;DHT22;13760;52.588;13.406;2023-03-14T09:04:51;12.30;99.90
25963;DHT22;13760;52.588;13.406;2023-03-14T09:07:17;12.30;99.90
25963;DHT22;13760;52.588;13.406;2023-03-14T09:09:42;12.30;99.90
25963;DHT22;13760;52.588;13.406;2023-03-14T09:12:08;12.30;99.90
25963;DHT22;13760;52.588;13.406;2023-03-14T09:14:33;12.40;99.90
25963;DHT22;13760;52.588;13.406;2023-03-14T09:16:59;12.50;99.90
25963;DHT22;13760;52.588;13.406;2023-03-14T09:19:24;12.60;99.90
25963;DHT22;13760;52.588;13.406;2023-03-14T09:21:50;12.70;99.90
25963;DHT22;13760;52.588;13.406;2023-03-14T09:24:16;12.80;99.90
25963;DHT22;13760;52.588;13.406;2023-03-14T09:26:42;13.00;99.90
25963;DHT22;13760;52.588;13.406;2023-03-14T09:29:08;13.20;99.90
25963;DHT22;13760;52.588;13.406;2023-03-14T09:31:34;13.30;99.90
25963;DHT22;13760;52.588;13.406;2023-03-14T09:34:00;13.50;99.90
25963;DHT22;13760;52.588;13.406;2023-03-14T09:36:26;13.70;99.90
25963;DHT22;13760;52.588;13.406;2023-03-14T09:38:51;13.90;99.90
25963;DHT22;13760;52.588;13.406;2023-03-14T09:41:25;14.10;99.90
25963;DHT22;13760;52.588;13.406;2023-03-14T09:44:01;14.20;99.90
25963;DHT22;13760;52.588;13.406;2023-03-14T09:46:29;14.30;99.90
25963;DHT22;13760;52.588;13.406;2023-03-14T09:48:56;14.30;99.90
25963;DHT22;13760;52.588;13.406;2023-03-14T09:51:21;14.20;99.90
25963;DHT22;13760;52.588;13.406;2023-03-14T09:53:49;14.10;99.90
25963;DHT22;13760;52.588;13.406;2023-03-14T09:56:27;14.10;99.90
25963;DHT22;13760;52.588;13.406;2023-03-14T09:59:00;13.90;99.90
25963;DHT22;13760;52.588;13.406;2023-03-14T10:01:30;13.70;99.90
25963;DHT22;13760;52.588;13.406;2023-03-14T10:03:58;13.60;99.90
25963;DHT22;13760;52.588;13.406;2023-03-14T10:06:30;13.60;99.90
25963;DHT22;13760;52.588;13.406;2023-03-14T10:08:56;13.50;99.90
25963;DHT22;13760;52.588;13.406;2023-03-14T10:11:24;13.40;99.90
25963;DHT22;13760;52.588;13.406;2023-03-14T10:14:10;13.40;99.90
25963;DHT22;13760;52.588;13.406;2023-03-14T10:16:46;13.40;99.90
25963;DHT22;13760;52.588;13.406;2023-03-14T10:19:16;13.40;99.90
25963;DHT22;13760;52.588;13.406;2023-03-14T10:21:44;13.40;99.90
25963;DHT22;13760;52.588;13.406;2023-03-14T10:24:21;13.40;99.90
25963;DHT22;13760;52.588;13.406;2023-03-14T10:26:55;13.40;99.90
25963;DHT22;13760;52.588;13.406;2023-03-14T10:29:23;13.40;99.90
25963;DHT22;13760;52.588;13.406;2023-03-14T10:32:00;13.40;99.90
25963;DHT22;13760;52.588;13.406;2023-03-14T10:34:32;13.40;99.90
25963;DHT22;13760;52.588;13.406;2023-03-14T10:37:07;13.40;99.90
25963;DHT22;13760;52.588;13.406;2023-03-14T10:39:49;13.40;99.90
25963;DHT22;13760;52.588;13.406;2023-03-14T10:42:27;13.40;99.90
25963;DHT22;13760;52.588;13.406;2023-03-14T10:45:05;13.40;99.90
25963;DHT22;13760;52.588;13.406;2023-03-14T10:47:33;13.30;99.90
25963;DHT22;13760;52.588;13.406;2023-03-14T10:52:47;13.30;99.90
25963;DHT22;13760;52.588;13.406;2023-03-14T10:55:20;13.30;99.90
25963;DHT22;13760;52.588;13.406;2023-03-14T10:57:48;13.30;99.90
25963;DHT22;13760;52.588;13.406;2023-03-14T11:00:16;13.30;99.90
25963;DHT22;13760;52.588;13.406;2023-03-14T11:03:11;13.30;99.90
25963;DHT22;13760;52.588;13.406;2023-03-14T11:05:47;13.30;99.90
25963;DHT22;13760;52.588;13.406;2023-03-14T11:08:18;13.30;99.90
25963;DHT22;13760;52.588;13.406;2023-03-14T11:10:48;13.30;99.90
25963;DHT22;13760;52.588;13.406;2023-03-14T11:13:17;13.30;99.90
25963;DHT22;13760;52.588;13.406;2023-03-14T11:18:43;13.30;99.90
25963;DHT22;13760;52.588;13.406;2023-03-14T11:26:59;13.20;99.90
25963;DHT22;13760;52.588;13.406;2023-03-14T11:29:40;13.20;99.90
25963;DHT22;13760;52.588;13.406;2023-03-14T11:32:13;13.20;99.90
25963;DHT22;13760;52.588;13.406;2023-03-14T11:34:51;13.20;99.90
25963;DHT22;13760;52.588;13.406;2023-03-14T11:37:42;13.20;99.90
25963;DHT22;13760;52.588;13.406;2023-03-14T11:40:20;13.30;99.90
25963;DHT22;13760;52.588;13.406;2023-03-14T11:42:53;13.30;99.90
25963;DHT22;13760;52.588;13.406;2023-03-14T11:45:29;13.30;99.90
25963;DHT22;13760;52.588;13.406;2023-03-14T11:50:57;13.40;99.90
25963;DHT22;13760;52.588;13.406;2023-03-14T11:53:47;13.40;99.90
25963;DHT22;13760;52.588;13.406;2023-03-14T11:56:20;13.40;99.90
25963;DHT22;13760;52.588;13.406;2023-03-14T11:58:55;13.40;99.90
25963;DHT22;13760;52.588;13.406;2023-03-14T12:01:29;13.40;99.90
25963;DHT22;13760;52.588;13.406;2023-03-14T12:06:34;13.50;99.90
25963;DHT22;13760;52.588;13.406;2023-03-14T12:09:04;13.50;99.90
25963;DHT22;13760;52.588;13.406;2023-03-14T12:11:47;13.40;99.90
25963;DHT22;13760;52.588;13.406;2023-03-14T12:16:48;13.30;99.90
25963;DHT22;13760;52.588;13.406;2023-03-14T12:19:25;13.30;99.90
25963;DHT22;13760;52.588;13.406;2023-03-14T12:21:58;13.20;99.90
25963;DHT22;13760;52.588;13.406;2023-03-14T12:24:31;13.30;99.90
25963;DHT22;13760;52.588;13.406;2023-03-14T12:27:01;13.20;99.90
25963;DHT22;13760;52.588;13.406;2023-03-14T12:29:28;13.30;99.90
25963;DHT22;13760;52.588;13.406;2023-03-14T12:34:34;13.40;99.90
25963;DHT22;13760;52.588;13.406;2023-03-14T12:45:30;14.00;99.90
25963;DHT22;13760;52.588;13.406;2023-03-14T12:48:08;14.10;99.90
25963;DHT22;13760;52.588;13.406;2023-03-14T12:50:44;14.20;99.90
25963;DHT22;13760;52.588;13.406;2023-03-14T12:58:47;14.00;99.90
25963;DHT22;13760;52.588;13.406;2023-03-14T13:01:18;13.90;99.90
25963;DHT22;13760;52.588;13.406;2023-03-14T13:03:51;13.90;99.90
25963;DHT22;13760;52.588;13.406;2023-03-14T13:11:54;13.50;99.90
25963;DHT22;13760;52.588;13.406;2023-03-14T13:14:23;13.50;99.90
25963;DHT22;13760;52.588;13.406;2023-03-14T13:16:49;13.50;99.90
25963;DHT22;13760;52.588;13.406;2023-03-14T13:19:19;13.50;99.90
25963;DHT22;13760;52.588;13.406;2023-03-14T13:21:45;13.60;99.90
25963;DHT22;13760;52.588;13.406;2023-03-14T13:24:23;13.70;99.90
25963;DHT22;13760;52.588;13.406;2023-03-14T13:26:49;14.00;99.90
25963;DHT22;13760;52.588;13.406;2023-03-14T13:29:20;14.20;99.90
25963;DHT22;13760;52.588;13.406;2023-03-14T13:31:49;14.30;99.90
25963;DHT22;13760;52.588;13.406;2023-03-14T13:34:15;14.40;99.90
25963;DHT22;13760;52.588;13.406;2023-03-14T13:36:40;14.50;99.90
25963;DHT22;13760;52.588;13.406;2023-03-14T13:39:18;14.50;99.90
25963;DHT22;13760;52.588;13.406;2023-03-14T13:41:45;14.70;99.90
25963;DHT22;13760;52.588;13.406;2023-03-14T13:44:35;14.80;99.90
25963;DHT22;13760;52.588;13.406;2023-03-14T13:47:15;14.90;99.90
25963;DHT22;13760;52.588;13.406;2023-03-14T13:49:42;14.90;99.90
25963;DHT22;13760;52.588;13.406;2023-03-14T13:52:40;14.80;99.90
25963;DHT22;13760;52.588;13.406;2023-03-14T13:55:15;14.70;99.90
25963;DHT22;13760;52.588;13.406;2023-03-14T13:57:53;14.60;99.90
25963;DHT22;13760;52.588;13.406;2023-03-14T14:00:27;14.50;99.90
25963;DHT22;13760;52.588;13.406;2023-03-14T14:02:54;14.30;99.90
25963;DHT22;13760;52.588;13.406;2023-03-14T14:05:20;14.30;99.90
25963;DHT22;13760;52.588;13.406;2023-03-14T14:07:46;14.30;99.90
25963;DHT22;13760;52.588;13.406;2023-03-14T14:10:14;14.50;99.90
25963;DHT22;13760;52.588;13.406;2023-03-14T14:12:45;14.60;99.90
25963;DHT22;13760;52.588;13.406;2023-03-14T14:15:23;14.60;99.90
25963;DHT22;13760;52.588;13.406;2023-03-14T14:17:51;14.70;99.90
25963;DHT22;13760;52.588;13.406;2023-03-14T14:23:01;14.70;99.90
25963;DHT22;13760;52.588;13.406;2023-03-14T14:25:32;14.70;99.90
25963;DHT22;13760;52.588;13.406;2023-03-14T14:27:58;14.60;99.90
25963;DHT22;13760;52.588;13.406;2023-03-14T14:30:32;14.50;99.90
25963;DHT22;13760;52.588;13.406;2023-03-14T14:33:20;14.50;99.90
25963;DHT22;13760;52.588;13.406;2023-03-14T14:36:21;14.40;99.90
25963;DHT22;13760;52.588;13.406;2023-03-14T14:38:52;14.40;99.90
25963;DHT22;13760;52.588;13.406;2023-03-14T14:41:17;14.40;99.90
25963;DHT22;13760;52.588;13.406;2023-03-14T14:43:43;14.30;99.90
25963;DHT22;13760;52.588;13.406;2023-03-14T14:46:09;14.20;99.90
25963;DHT22;13760;52.588;13.406;2023-03-14T14:48:38;14.00;99.90
25963;DHT22;13760;52.588;13.406;2023-03-14T14:51:06;13.80;99.90
25963;DHT22;13760;52.588;13.406;2023-03-14T14:53:37;13.60;99.90
25963;DHT22;13760;52.588;13.406;2023-03-14T14:56:15;13.50;99.90
25963;DHT22;13760;52.588;13.406;2023-03-14T14:58:43;13.40;99.90
25963;DHT22;13760;52.588;13.406;2023-03-14T15:01:23;13.30;99.90
25963;DHT22;13760;52.588;13.406;2023-03-14T15:03:51;13.30;99.90
25963;DHT22;13760;52.588;13.406;2023-03-14T15:06:17;13.10;99.90
25963;DHT22;13760;52.588;13.406;2023-03-14T15:08:45;12.80;99.90
25963;DHT22;13760;52.588;13.406;2023-03-14T15:11:19;12.50;99.90
25963;DHT22;13760;52.588;13.406;2023-03-14T15:13:46;12.20;99.90
25963;DHT22;13760;52.588;13.406;2023-03-14T15:16:12;11.90;99.90
25963;DHT22;13760;52.588;13.406;2023-03-14T15:18:39;11.70;99.90
25963;DHT22;13760;52.588;13.406;2023-03-14T15:21:05;10.80;99.90
25963;DHT22;13760;52.588;13.406;2023-03-14T15:23:31;10.00;99.90
25963;DHT22;13760;52.588;13.406;2023-03-14T15:25:57;9.40;99.90
25963;DHT22;13760;52.588;13.406;2023-03-14T15:28:24;8.90;99.90
25963;DHT22;13760;52.588;13.406;2023-03-14T15:30:52;8.50;99.90
25963;DHT22;13760;52.588;13.406;2023-03-14T15:33:18;8.20;99.90
25963;DHT22;13760;52.588;13.406;2023-03-14T15:35:45;7.80;99.90
25963;DHT22;13760;52.588;13.406;2023-03-14T15:38:18;7.40;99.90
25963;DHT22;13760;52.588;13.406;2023-03-14T15:40:50;7.10;99.90
25963;DHT22;13760;52.588;13.406;2023-03-14T15:43:17;6.80;99.90
25963;DHT22;13760;52.588;13.406;2023-03-14T15:45:43;6.60;99.90
25963;DHT22;13760;52.588;13.406;2023-03-14T15:48:19;6.30;99.90
25963;DHT22;13760;52.588;13.406;2023-03-14T15:50:46;5.70;99.90
25963;DHT22;13760;52.588;13.406;2023-03-14T15:53:12;5.20;99.90
25963;DHT22;13760;52.588;13.406;2023-03-14T15:55:38;4.70;99.90
25963;DHT22;13760;52.588;13.406;2023-03-14T15:58:03;4.40;99.90
25963;DHT22;13760;52.588;13.406;2023-03-14T16:00:29;4.10;99.90
25963;DHT22;13760;52.588;13.406;2023-03-14T16:02:55;3.90;99.90
25963;DHT22;13760;52.588;13.406;2023-03-14T16:05:23;3.60;99.90
25963;DHT22;13760;52.588;13.406;2023-03-14T16:07:49;3.50;99.90
25963;DHT22;13760;52.588;13.406;2023-03-14T16:10:15;3.30;99.90
25963;DHT22;13760;52.588;13.406;2023-03-14T16:12:41;3.20;99.90
25963;DHT22;13760;52.588;13.406;2023-03-14T16:15:08;3.10;99.90
25963;DHT22;13760;52.588;13.406;2023-03-14T16:17:34;2.90;99.90
25963;DHT22;13760;52.588;13.406;2023-03-14T16:20:00;2.90;99.90
25963;DHT22;13760;52.588;13.406;2023-03-14T16:22:26;2.90;99.90